Terminal Aerodrome Forecast
Issued by NWS Brownsville, TX

Home | Current Version | Previous Version | Text Only | Print | Product List | Glossary On
Versions: 1 2 3 4 5 6 7 8 9 10 11 12 13 14 15 16
931
FTUS44 KBRO 201730
TAFMFE
TAF
KMFE 201730Z 2018/2118 16015KT P6SM FEW030
     FM210200 13012KT P6SM FEW070
     FM210600 15008KT P6SM SCT015 SCT020
      TEMPO 2106/2110 BKN015
     FM211400 15012KT P6SM FEW035=

USA.gov is the U.S. government's official web portal to all federal, state and local government web resources and services.